sensor_id;sensor_type;location;lat;lon;timestamp;P1;durP1;ratioP1;P2;durP2;ratioP2
22861;SDS011;11598;50.652;6.172;2022-08-20T00:06:22;107.03;;;28.48;;
22861;SDS011;11598;50.652;6.172;2022-08-20T00:16:24;99.55;;;25.35;;
22861;SDS011;11598;50.652;6.172;2022-08-20T00:26:25;47.70;;;21.15;;
22861;SDS011;11598;50.652;6.172;2022-08-20T00:36:26;97.85;;;26.35;;
22861;SDS011;11598;50.652;6.172;2022-08-20T00:46:26;127.63;;;30.98;;
22861;SDS011;11598;50.652;6.172;2022-08-20T00:56:28;112.30;;;28.75;;
22861;SDS011;11598;50.652;6.172;2022-08-20T01:06:30;164.98;;;32.95;;
22861;SDS011;11598;50.652;6.172;2022-08-20T01:16:30;145.00;;;25.60;;
22861;SDS011;11598;50.652;6.172;2022-08-20T01:26:35;106.90;;;19.80;;
22861;SDS011;11598;50.652;6.172;2022-08-20T01:36:42;177.88;;;34.25;;
22861;SDS011;11598;50.652;6.172;2022-08-20T01:46:52;184.27;;;32.92;;
22861;SDS011;11598;50.652;6.172;2022-08-20T02:07:00;201.50;;;31.67;;
22861;SDS011;11598;50.652;6.172;2022-08-20T02:17:03;130.90;;;27.57;;
22861;SDS011;11598;50.652;6.172;2022-08-20T02:27:03;162.68;;;34.85;;
22861;SDS011;11598;50.652;6.172;2022-08-20T02:37:04;160.68;;;33.53;;
22861;SDS011;11598;50.652;6.172;2022-08-20T02:47:06;194.45;;;34.97;;
22861;SDS011;11598;50.652;6.172;2022-08-20T02:57:11;186.63;;;33.85;;
22861;SDS011;11598;50.652;6.172;2022-08-20T03:07:12;88.85;;;21.45;;
22861;SDS011;11598;50.652;6.172;2022-08-20T03:17:13;176.00;;;30.23;;
22861;SDS011;11598;50.652;6.172;2022-08-20T03:27:13;206.98;;;33.50;;
22861;SDS011;11598;50.652;6.172;2022-08-20T03:37:14;151.82;;;38.22;;
22861;SDS011;11598;50.652;6.172;2022-08-20T03:47:14;128.55;;;36.25;;
22861;SDS011;11598;50.652;6.172;2022-08-20T03:57:15;256.25;;;42.30;;
22861;SDS011;11598;50.652;6.172;2022-08-20T04:07:17;164.95;;;38.33;;
22861;SDS011;11598;50.652;6.172;2022-08-20T04:17:24;133.10;;;32.20;;
22861;SDS011;11598;50.652;6.172;2022-08-20T04:27:24;199.13;;;32.47;;
22861;SDS011;11598;50.652;6.172;2022-08-20T04:37:25;122.65;;;31.90;;
22861;SDS011;11598;50.652;6.172;2022-08-20T04:47:25;140.80;;;30.60;;
22861;SDS011;11598;50.652;6.172;2022-08-20T04:57:26;108.70;;;24.20;;
22861;SDS011;11598;50.652;6.172;2022-08-20T05:07:27;109.60;;;23.45;;
22861;SDS011;11598;50.652;6.172;2022-08-20T05:17:27;65.15;;;19.67;;
22861;SDS011;11598;50.652;6.172;2022-08-20T05:27:28;69.53;;;19.63;;
22861;SDS011;11598;50.652;6.172;2022-08-20T05:37:29;53.97;;;18.00;;
22861;SDS011;11598;50.652;6.172;2022-08-20T05:47:30;39.22;;;14.10;;
22861;SDS011;11598;50.652;6.172;2022-08-20T05:57:30;65.00;;;15.77;;
22861;SDS011;11598;50.652;6.172;2022-08-20T06:07:30;57.42;;;18.15;;
22861;SDS011;11598;50.652;6.172;2022-08-20T06:17:31;50.25;;;17.83;;
22861;SDS011;11598;50.652;6.172;2022-08-20T06:27:39;88.70;;;20.90;;
22861;SDS011;11598;50.652;6.172;2022-08-20T06:37:41;46.15;;;17.63;;
22861;SDS011;11598;50.652;6.172;2022-08-20T06:47:43;57.30;;;18.73;;
22861;SDS011;11598;50.652;6.172;2022-08-20T06:57:45;72.65;;;20.88;;
22861;SDS011;11598;50.652;6.172;2022-08-20T07:07:47;101.43;;;25.15;;
22861;SDS011;11598;50.652;6.172;2022-08-20T07:17:51;62.33;;;21.33;;
22861;SDS011;11598;50.652;6.172;2022-08-20T07:27:57;65.77;;;20.33;;
22861;SDS011;11598;50.652;6.172;2022-08-20T07:38:13;77.60;;;19.88;;
22861;SDS011;11598;50.652;6.172;2022-08-20T07:48:23;37.30;;;15.20;;
22861;SDS011;11598;50.652;6.172;2022-08-20T07:58:25;57.10;;;16.83;;
22861;SDS011;11598;50.652;6.172;2022-08-20T08:08:25;41.55;;;15.50;;
22861;SDS011;11598;50.652;6.172;2022-08-20T08:18:29;35.63;;;14.38;;
22861;SDS011;11598;50.652;6.172;2022-08-20T08:28:37;39.88;;;16.58;;
22861;SDS011;11598;50.652;6.172;2022-08-20T08:38:39;38.63;;;15.32;;
22861;SDS011;11598;50.652;6.172;2022-08-20T08:48:43;45.33;;;16.38;;
22861;SDS011;11598;50.652;6.172;2022-08-20T08:58:46;39.72;;;14.90;;
22861;SDS011;11598;50.652;6.172;2022-08-20T09:18:52;23.67;;;12.75;;
22861;SDS011;11598;50.652;6.172;2022-08-20T09:28:53;31.48;;;15.45;;
22861;SDS011;11598;50.652;6.172;2022-08-20T09:38:53;34.20;;;14.05;;
22861;SDS011;11598;50.652;6.172;2022-08-20T09:48:54;21.35;;;11.20;;
22861;SDS011;11598;50.652;6.172;2022-08-20T09:58:54;25.70;;;10.90;;
22861;SDS011;11598;50.652;6.172;2022-08-20T10:08:55;22.27;;;11.15;;
22861;SDS011;11598;50.652;6.172;2022-08-20T10:18:55;26.08;;;11.90;;
22861;SDS011;11598;50.652;6.172;2022-08-20T10:28:56;26.35;;;11.45;;
22861;SDS011;11598;50.652;6.172;2022-08-20T10:38:57;21.85;;;10.40;;
22861;SDS011;11598;50.652;6.172;2022-08-20T10:48:57;23.77;;;11.18;;
22861;SDS011;11598;50.652;6.172;2022-08-20T10:58:57;22.70;;;9.63;;
22861;SDS011;11598;50.652;6.172;2022-08-20T11:08:58;21.02;;;8.88;;
22861;SDS011;11598;50.652;6.172;2022-08-20T11:18:59;26.45;;;7.97;;
22861;SDS011;11598;50.652;6.172;2022-08-20T11:28:59;21.35;;;7.72;;
22861;SDS011;11598;50.652;6.172;2022-08-20T11:39:00;21.10;;;7.38;;
22861;SDS011;11598;50.652;6.172;2022-08-20T11:49:01;24.27;;;8.32;;
22861;SDS011;11598;50.652;6.172;2022-08-20T11:59:02;15.60;;;6.10;;
22861;SDS011;11598;50.652;6.172;2022-08-20T12:09:02;21.00;;;6.55;;
22861;SDS011;11598;50.652;6.172;2022-08-20T12:19:03;18.80;;;7.43;;
22861;SDS011;11598;50.652;6.172;2022-08-20T12:29:03;15.18;;;7.10;;
22861;SDS011;11598;50.652;6.172;2022-08-20T12:39:04;18.17;;;6.53;;
22861;SDS011;11598;50.652;6.172;2022-08-20T12:49:04;12.45;;;3.50;;
22861;SDS011;11598;50.652;6.172;2022-08-20T12:59:04;20.38;;;3.60;;
22861;SDS011;11598;50.652;6.172;2022-08-20T13:09:05;13.43;;;3.90;;
22861;SDS011;11598;50.652;6.172;2022-08-20T13:19:05;16.60;;;3.35;;
22861;SDS011;11598;50.652;6.172;2022-08-20T13:29:06;14.40;;;3.20;;
22861;SDS011;11598;50.652;6.172;2022-08-20T13:39:06;10.88;;;3.22;;
22861;SDS011;11598;50.652;6.172;2022-08-20T13:49:07;12.52;;;3.17;;
22861;SDS011;11598;50.652;6.172;2022-08-20T13:59:07;13.15;;;3.10;;
22861;SDS011;11598;50.652;6.172;2022-08-20T14:09:07;13.00;;;3.22;;
22861;SDS011;11598;50.652;6.172;2022-08-20T14:19:08;15.27;;;3.70;;
22861;SDS011;11598;50.652;6.172;2022-08-20T14:29:08;13.45;;;3.55;;
22861;SDS011;11598;50.652;6.172;2022-08-20T14:39:09;10.02;;;2.78;;
22861;SDS011;11598;50.652;6.172;2022-08-20T14:49:09;14.15;;;3.35;;
22861;SDS011;11598;50.652;6.172;2022-08-20T14:59:09;12.02;;;2.72;;
22861;SDS011;11598;50.652;6.172;2022-08-20T15:09:10;13.25;;;2.40;;
22861;SDS011;11598;50.652;6.172;2022-08-20T15:19:10;11.13;;;2.83;;
22861;SDS011;11598;50.652;6.172;2022-08-20T15:29:11;11.75;;;2.63;;
22861;SDS011;11598;50.652;6.172;2022-08-20T15:39:11;13.15;;;2.60;;
22861;SDS011;11598;50.652;6.172;2022-08-20T15:49:11;10.98;;;2.83;;
22861;SDS011;11598;50.652;6.172;2022-08-20T16:09:30;13.13;;;2.53;;
22861;SDS011;11598;50.652;6.172;2022-08-20T16:30:33;8.50;;;2.40;;
22861;SDS011;11598;50.652;6.172;2022-08-20T16:40:45;10.73;;;2.53;;
22861;SDS011;11598;50.652;6.172;2022-08-20T16:50:54;15.35;;;2.47;;
22861;SDS011;11598;50.652;6.172;2022-08-20T17:11:10;13.30;;;3.10;;
22861;SDS011;11598;50.652;6.172;2022-08-20T17:42:12;13.40;;;2.72;;
22861;SDS011;11598;50.652;6.172;2022-08-20T17:52:18;9.88;;;2.55;;
22861;SDS011;11598;50.652;6.172;2022-08-20T18:02:24;10.05;;;2.42;;
22861;SDS011;11598;50.652;6.172;2022-08-20T18:33:10;10.55;;;2.92;;
22861;SDS011;11598;50.652;6.172;2022-08-20T18:43:15;8.68;;;2.25;;
22861;SDS011;11598;50.652;6.172;2022-08-20T18:53:26;7.67;;;3.00;;
22861;SDS011;11598;50.652;6.172;2022-08-20T19:24:00;7.63;;;2.85;;
22861;SDS011;11598;50.652;6.172;2022-08-20T19:34:06;9.52;;;5.07;;
22861;SDS011;11598;50.652;6.172;2022-08-20T19:44:09;12.13;;;3.73;;
22861;SDS011;11598;50.652;6.172;2022-08-20T19:54:17;13.30;;;2.97;;
22861;SDS011;11598;50.652;6.172;2022-08-20T20:04:20;14.20;;;2.67;;
22861;SDS011;11598;50.652;6.172;2022-08-20T20:14:20;15.35;;;2.60;;
22861;SDS011;11598;50.652;6.172;2022-08-20T20:24:27;10.38;;;2.80;;
22861;SDS011;11598;50.652;6.172;2022-08-20T20:34:34;9.18;;;2.80;;
22861;SDS011;11598;50.652;6.172;2022-08-20T20:44:40;9.75;;;2.10;;
22861;SDS011;11598;50.652;6.172;2022-08-20T20:54:43;13.70;;;2.88;;
22861;SDS011;11598;50.652;6.172;2022-08-20T21:04:45;10.25;;;2.90;;
22861;SDS011;11598;50.652;6.172;2022-08-20T21:14:48;7.85;;;3.17;;
22861;SDS011;11598;50.652;6.172;2022-08-20T21:24:49;7.32;;;2.33;;
22861;SDS011;11598;50.652;6.172;2022-08-20T21:34:50;9.85;;;3.10;;
22861;SDS011;11598;50.652;6.172;2022-08-20T21:44:50;16.02;;;2.92;;
22861;SDS011;11598;50.652;6.172;2022-08-20T21:54:51;8.67;;;2.30;;
22861;SDS011;11598;50.652;6.172;2022-08-20T22:04:52;7.73;;;2.23;;
22861;SDS011;11598;50.652;6.172;2022-08-20T22:14:53;10.98;;;2.63;;
22861;SDS011;11598;50.652;6.172;2022-08-20T22:24:54;8.55;;;3.00;;
22861;SDS011;11598;50.652;6.172;2022-08-20T22:34:54;11.15;;;4.85;;
22861;SDS011;11598;50.652;6.172;2022-08-20T22:44:54;19.45;;;9.68;;
22861;SDS011;11598;50.652;6.172;2022-08-20T22:54:55;9.27;;;3.92;;
22861;SDS011;11598;50.652;6.172;2022-08-20T23:04:55;8.02;;;2.85;;
22861;SDS011;11598;50.652;6.172;2022-08-20T23:14:56;9.25;;;2.70;;
22861;SDS011;11598;50.652;6.172;2022-08-20T23:24:56;8.38;;;2.90;;
22861;SDS011;11598;50.652;6.172;2022-08-20T23:34:56;10.13;;;2.35;;
22861;SDS011;11598;50.652;6.172;2022-08-20T23:44:57;11.23;;;2.70;;
22861;SDS011;11598;50.652;6.172;2022-08-20T23:54:57;8.30;;;2.60;;
